sensor_id;sensor_type;location;lat;lon;timestamp;pressure;altitude;pressure_sealevel;temperature;humidity
68758;BME280;55747;51.998;4.466;2023-05-20T00:01:07;56329.00;;;-144.48;98.42
68758;BME280;55747;51.998;4.466;2023-05-20T00:03:32;56362.06;;;-144.48;97.91
68758;BME280;55747;51.998;4.466;2023-05-20T00:05:57;56337.25;;;-144.48;97.79
68758;BME280;55747;51.998;4.466;2023-05-20T00:08:22;56335.19;;;-144.48;97.35
68758;BME280;55747;51.998;4.466;2023-05-20T00:10:48;56329.00;;;-144.48;96.77
68758;BME280;55747;51.998;4.466;2023-05-20T00:13:13;56407.56;;;-144.48;96.56
68758;BME280;55747;51.998;4.466;2023-05-20T00:15:38;56306.25;;;-144.48;96.84
68758;BME280;55747;51.998;4.466;2023-05-20T00:18:03;56341.41;;;-144.48;96.90
68758;BME280;55747;51.998;4.466;2023-05-20T00:20:29;56347.59;;;-144.48;96.63
68758;BME280;55747;51.998;4.466;2023-05-20T00:22:54;56370.34;;;-144.48;96.17
68758;BME280;55747;51.998;4.466;2023-05-20T00:25:19;56331.06;;;-144.48;95.86
68758;BME280;55747;51.998;4.466;2023-05-20T00:27:45;56368.28;;;-144.48;95.75
68758;BME280;55747;51.998;4.466;2023-05-20T00:30:11;56341.41;;;-144.48;95.69
68758;BME280;55747;51.998;4.466;2023-05-20T00:32:36;56337.25;;;-144.48;95.45
68758;BME280;55747;51.998;4.466;2023-05-20T00:35:01;56364.13;;;-144.48;95.59
68758;BME280;55747;51.998;4.466;2023-05-20T00:37:27;56333.13;;;-144.48;95.52
68758;BME280;55747;51.998;4.466;2023-05-20T00:39:52;56347.59;;;-144.48;95.75
68758;BME280;55747;51.998;4.466;2023-05-20T00:42:20;56378.63;;;-144.48;95.78
68758;BME280;55747;51.998;4.466;2023-05-20T00:44:46;56324.88;;;-144.48;96.14
68758;BME280;55747;51.998;4.466;2023-05-20T00:47:11;56349.66;;;-144.48;96.44
68758;BME280;55747;51.998;4.466;2023-05-20T00:49:37;56347.59;;;-144.48;96.88
68758;BME280;55747;51.998;4.466;2023-05-20T00:52:02;56331.06;;;-144.48;97.22
68758;BME280;55747;51.998;4.466;2023-05-20T00:54:27;56324.88;;;-144.48;97.56
68758;BME280;55747;51.998;4.466;2023-05-20T00:56:53;56339.34;;;-144.48;98.15
68758;BME280;55747;51.998;4.466;2023-05-20T00:59:18;56378.63;;;-144.48;98.58
68758;BME280;55747;51.998;4.466;2023-05-20T01:01:43;56368.28;;;-144.48;98.93
68758;BME280;55747;51.998;4.466;2023-05-20T01:04:08;56306.25;;;-144.48;99.32
68758;BME280;55747;51.998;4.466;2023-05-20T01:06:34;56326.94;;;-144.48;99.80
68758;BME280;55747;51.998;4.466;2023-05-20T01:09:01;56362.06;;;-144.48;99.93
68758;BME280;55747;51.998;4.466;2023-05-20T01:13:53;56318.66;;;-144.48;100.00
68758;BME280;55747;51.998;4.466;2023-05-20T01:16:19;56347.59;;;-144.48;100.00
68758;BME280;55747;51.998;4.466;2023-05-20T01:18:45;56339.34;;;-144.48;100.00
68758;BME280;55747;51.998;4.466;2023-05-20T01:21:12;56384.81;;;-144.48;100.00
68758;BME280;55747;51.998;4.466;2023-05-20T01:23:40;56333.13;;;-144.48;100.00
68758;BME280;55747;51.998;4.466;2023-05-20T01:26:05;56314.53;;;-144.48;100.00
68758;BME280;55747;51.998;4.466;2023-05-20T01:28:31;56364.13;;;-144.48;100.00
68758;BME280;55747;51.998;4.466;2023-05-20T01:30:57;56349.66;;;-144.48;100.00
68758;BME280;55747;51.998;4.466;2023-05-20T01:33:24;56355.88;;;-144.48;100.00
68758;BME280;55747;51.998;4.466;2023-05-20T01:35:51;56355.88;;;-144.48;100.00
68758;BME280;55747;51.998;4.466;2023-05-20T01:38:17;56355.88;;;-144.48;100.00
68758;BME280;55747;51.998;4.466;2023-05-20T01:40:42;56331.06;;;-144.48;100.00
68758;BME280;55747;51.998;4.466;2023-05-20T01:43:08;56357.94;;;-144.48;100.00
68758;BME280;55747;51.998;4.466;2023-05-20T01:45:33;56353.81;;;-144.48;100.00
68758;BME280;55747;51.998;4.466;2023-05-20T01:47:59;56372.41;;;-144.48;100.00
68758;BME280;55747;51.998;4.466;2023-05-20T01:50:25;56335.19;;;-144.48;100.00
68758;BME280;55747;51.998;4.466;2023-05-20T01:52:50;56386.88;;;-144.48;100.00
68758;BME280;55747;51.998;4.466;2023-05-20T01:55:16;56349.66;;;-144.48;100.00
68758;BME280;55747;51.998;4.466;2023-05-20T01:57:41;56347.59;;;-144.48;100.00
68758;BME280;55747;51.998;4.466;2023-05-20T02:00:06;56351.75;;;-144.48;100.00
68758;BME280;55747;51.998;4.466;2023-05-20T02:02:32;56362.06;;;-144.48;100.00
68758;BME280;55747;51.998;4.466;2023-05-20T02:04:57;56349.66;;;-144.48;100.00
68758;BME280;55747;51.998;4.466;2023-05-20T02:07:22;56339.34;;;-144.48;100.00
68758;BME280;55747;51.998;4.466;2023-05-20T02:09:47;56368.28;;;-144.48;100.00
68758;BME280;55747;51.998;4.466;2023-05-20T02:12:13;56374.47;;;-144.48;100.00
68758;BME280;55747;51.998;4.466;2023-05-20T02:14:41;56370.34;;;-144.48;100.00
68758;BME280;55747;51.998;4.466;2023-05-20T02:17:07;56314.53;;;-144.48;100.00
68758;BME280;55747;51.998;4.466;2023-05-20T02:19:32;56391.00;;;-144.48;100.00
68758;BME280;55747;51.998;4.466;2023-05-20T02:21:57;56360.00;;;-144.48;100.00
68758;BME280;55747;51.998;4.466;2023-05-20T02:24:22;56355.88;;;-144.48;100.00
68758;BME280;55747;51.998;4.466;2023-05-20T02:26:47;56376.53;;;-144.48;100.00
68758;BME280;55747;51.998;4.466;2023-05-20T02:29:18;56370.34;;;-144.48;100.00
68758;BME280;55747;51.998;4.466;2023-05-20T02:31:46;56366.22;;;-144.48;100.00
68758;BME280;55747;51.998;4.466;2023-05-20T02:34:11;56380.69;;;-144.48;100.00
68758;BME280;55747;51.998;4.466;2023-05-20T02:36:36;56355.88;;;-144.48;100.00
68758;BME280;55747;51.998;4.466;2023-05-20T02:39:01;56382.75;;;-144.48;100.00
68758;BME280;55747;51.998;4.466;2023-05-20T02:41:26;56349.66;;;-144.48;100.00
68758;BME280;55747;51.998;4.466;2023-05-20T02:43:51;56353.81;;;-144.48;100.00
68758;BME280;55747;51.998;4.466;2023-05-20T02:46:17;56322.78;;;-144.48;100.00
68758;BME280;55747;51.998;4.466;2023-05-20T02:48:43;56360.00;;;-144.48;100.00
68758;BME280;55747;51.998;4.466;2023-05-20T02:51:09;56372.41;;;-144.48;100.00
68758;BME280;55747;51.998;4.466;2023-05-20T02:53:34;56347.59;;;-144.48;100.00
68758;BME280;55747;51.998;4.466;2023-05-20T02:55:59;56382.75;;;-144.48;100.00
68758;BME280;55747;51.998;4.466;2023-05-20T02:58:25;56343.47;;;-144.48;100.00
68758;BME280;55747;51.998;4.466;2023-05-20T03:00:51;56353.81;;;-144.48;100.00
68758;BME280;55747;51.998;4.466;2023-05-20T03:03:17;56345.53;;;-144.48;100.00
68758;BME280;55747;51.998;4.466;2023-05-20T03:05:42;56331.06;;;-144.48;100.00
68758;BME280;55747;51.998;4.466;2023-05-20T03:08:10;56376.53;;;-144.48;100.00
68758;BME280;55747;51.998;4.466;2023-05-20T03:10:37;56355.88;;;-144.48;100.00
68758;BME280;55747;51.998;4.466;2023-05-20T03:13:03;56374.47;;;-144.48;100.00
68758;BME280;55747;51.998;4.466;2023-05-20T03:15:29;56376.53;;;-144.48;100.00
68758;BME280;55747;51.998;4.466;2023-05-20T03:17:54;56397.22;;;-144.48;100.00
68758;BME280;55747;51.998;4.466;2023-05-20T03:20:19;56386.88;;;-144.48;100.00
68758;BME280;55747;51.998;4.466;2023-05-20T03:22:45;56333.13;;;-144.48;100.00
68758;BME280;55747;51.998;4.466;2023-05-20T03:25:10;56395.16;;;-144.48;100.00
68758;BME280;55747;51.998;4.466;2023-05-20T03:27:35;56386.88;;;-144.48;100.00
68758;BME280;55747;51.998;4.466;2023-05-20T03:30:02;56388.94;;;-144.48;100.00
68758;BME280;55747;51.998;4.466;2023-05-20T03:32:27;56362.06;;;-144.48;100.00
68758;BME280;55747;51.998;4.466;2023-05-20T03:34:52;56360.00;;;-144.48;100.00
68758;BME280;55747;51.998;4.466;2023-05-20T03:37:18;56397.22;;;-144.48;100.00
68758;BME280;55747;51.998;4.466;2023-05-20T03:39:43;56384.81;;;-144.48;100.00
68758;BME280;55747;51.998;4.466;2023-05-20T03:42:08;56374.47;;;-144.48;100.00
68758;BME280;55747;51.998;4.466;2023-05-20T03:44:34;56345.53;;;-144.48;100.00
68758;BME280;55747;51.998;4.466;2023-05-20T03:46:59;56355.88;;;-144.48;100.00
68758;BME280;55747;51.998;4.466;2023-05-20T03:49:24;56337.25;;;-144.48;100.00
68758;BME280;55747;51.998;4.466;2023-05-20T03:51:49;56331.06;;;-144.48;100.00
68758;BME280;55747;51.998;4.466;2023-05-20T03:54:15;56382.75;;;-144.48;100.00
68758;BME280;55747;51.998;4.466;2023-05-20T03:56:41;56380.69;;;-144.48;100.00
68758;BME280;55747;51.998;4.466;2023-05-20T03:59:06;56364.13;;;-144.48;100.00
68758;BME280;55747;51.998;4.466;2023-05-20T04:01:31;56326.94;;;-144.48;100.00
68758;BME280;55747;51.998;4.466;2023-05-20T04:03:57;56370.34;;;-144.48;100.00
68758;BME280;55747;51.998;4.466;2023-05-20T04:06:22;56391.00;;;-144.48;100.00
68758;BME280;55747;51.998;4.466;2023-05-20T04:08:48;56372.41;;;-144.48;100.00
68758;BME280;55747;51.998;4.466;2023-05-20T04:11:14;56388.94;;;-144.48;100.00
68758;BME280;55747;51.998;4.466;2023-05-20T04:13:39;56341.41;;;-144.48;100.00
68758;BME280;55747;51.998;4.466;2023-05-20T04:16:04;56335.19;;;-144.48;100.00
68758;BME280;55747;51.998;4.466;2023-05-20T04:18:29;56393.09;;;-144.48;100.00
68758;BME280;55747;51.998;4.466;2023-05-20T04:20:55;56355.88;;;-144.48;100.00
68758;BME280;55747;51.998;4.466;2023-05-20T04:23:21;56376.53;;;-144.48;100.00
68758;BME280;55747;51.998;4.466;2023-05-20T04:25:46;56374.47;;;-144.48;100.00
68758;BME280;55747;51.998;4.466;2023-05-20T04:28:12;56380.69;;;-144.48;100.00
68758;BME280;55747;51.998;4.466;2023-05-20T04:30:40;56388.94;;;-144.48;100.00
68758;BME280;55747;51.998;4.466;2023-05-20T04:33:06;56395.16;;;-144.48;100.00
68758;BME280;55747;51.998;4.466;2023-05-20T04:35:31;56341.41;;;-144.48;100.00
68758;BME280;55747;51.998;4.466;2023-05-20T04:37:58;56413.75;;;-144.48;100.00
68758;BME280;55747;51.998;4.466;2023-05-20T04:40:25;56415.81;;;-144.48;100.00
68758;BME280;55747;51.998;4.466;2023-05-20T04:42:51;56345.53;;;-144.48;100.00
68758;BME280;55747;51.998;4.466;2023-05-20T04:45:16;56357.94;;;-144.48;100.00
68758;BME280;55747;51.998;4.466;2023-05-20T04:47:42;56374.47;;;-144.48;100.00
68758;BME280;55747;51.998;4.466;2023-05-20T04:50:08;56382.75;;;-144.48;100.00
68758;BME280;55747;51.998;4.466;2023-05-20T04:52:37;56391.00;;;-144.48;100.00
68758;BME280;55747;51.998;4.466;2023-05-20T04:55:03;56335.19;;;-144.48;100.00
68758;BME280;55747;51.998;4.466;2023-05-20T04:57:29;56355.88;;;-144.48;100.00
68758;BME280;55747;51.998;4.466;2023-05-20T04:59:54;56372.41;;;-144.48;100.00
68758;BME280;55747;51.998;4.466;2023-05-20T05:02:22;56347.59;;;-144.48;100.00
68758;BME280;55747;51.998;4.466;2023-05-20T05:04:48;56343.47;;;-144.48;100.00
68758;BME280;55747;51.998;4.466;2023-05-20T05:07:13;56374.47;;;-144.48;100.00
68758;BME280;55747;51.998;4.466;2023-05-20T05:09:38;56337.25;;;-144.48;100.00
68758;BME280;55747;51.998;4.466;2023-05-20T05:12:05;56411.69;;;-144.48;100.00
68758;BME280;55747;51.998;4.466;2023-05-20T05:14:30;56388.94;;;-144.48;100.00
68758;BME280;55747;51.998;4.466;2023-05-20T05:16:56;56413.75;;;-144.48;100.00
68758;BME280;55747;51.998;4.466;2023-05-20T05:19:22;56370.34;;;-144.48;100.00
68758;BME280;55747;51.998;4.466;2023-05-20T05:21:47;56357.94;;;-144.48;100.00
68758;BME280;55747;51.998;4.466;2023-05-20T05:24:12;56351.75;;;-144.48;100.00
68758;BME280;55747;51.998;4.466;2023-05-20T05:26:37;56411.69;;;-144.48;100.00
68758;BME280;55747;51.998;4.466;2023-05-20T05:29:03;56376.53;;;-144.48;100.00
68758;BME280;55747;51.998;4.466;2023-05-20T05:31:28;56382.75;;;-144.48;100.00
68758;BME280;55747;51.998;4.466;2023-05-20T05:33:53;56316.59;;;-144.48;100.00
68758;BME280;55747;51.998;4.466;2023-05-20T05:36:18;56384.81;;;-144.48;100.00
68758;BME280;55747;51.998;4.466;2023-05-20T05:38:43;56386.88;;;-144.48;100.00
68758;BME280;55747;51.998;4.466;2023-05-20T05:41:09;56393.09;;;-144.48;100.00
68758;BME280;55747;51.998;4.466;2023-05-20T05:43:34;56326.94;;;-144.48;100.00
68758;BME280;55747;51.998;4.466;2023-05-20T05:45:59;56384.81;;;-144.48;100.00
68758;BME280;55747;51.998;4.466;2023-05-20T05:48:25;56380.69;;;-144.48;98.96
68758;BME280;55747;51.998;4.466;2023-05-20T05:50:50;56326.94;;;-144.48;97.45
68758;BME280;55747;51.998;4.466;2023-05-20T05:53:15;56395.16;;;-144.48;96.19
68758;BME280;55747;51.998;4.466;2023-05-20T05:55:40;56386.88;;;-144.48;90.65
68758;BME280;55747;51.998;4.466;2023-05-20T05:58:05;56374.47;;;-144.48;85.84
68758;BME280;55747;51.998;4.466;2023-05-20T06:00:31;56341.41;;;-144.48;83.99
68758;BME280;55747;51.998;4.466;2023-05-20T06:02:56;56343.47;;;-144.48;86.85
68758;BME280;55747;51.998;4.466;2023-05-20T06:05:21;56364.13;;;-144.48;88.02
68758;BME280;55747;51.998;4.466;2023-05-20T06:07:46;56353.81;;;-144.48;89.80
68758;BME280;55747;51.998;4.466;2023-05-20T06:10:11;56357.94;;;-144.48;88.74
68758;BME280;55747;51.998;4.466;2023-05-20T06:12:37;56364.13;;;-144.48;85.98
68758;BME280;55747;51.998;4.466;2023-05-20T06:15:02;56386.88;;;-144.48;83.07
68758;BME280;55747;51.998;4.466;2023-05-20T06:17:27;56364.13;;;-144.48;80.60
68758;BME280;55747;51.998;4.466;2023-05-20T06:19:53;56391.00;;;-144.48;81.18
68758;BME280;55747;51.998;4.466;2023-05-20T06:22:18;56364.13;;;-144.48;78.76
68758;BME280;55747;51.998;4.466;2023-05-20T06:24:46;56347.59;;;-144.48;75.40
68758;BME280;55747;51.998;4.466;2023-05-20T06:27:11;56370.34;;;-144.48;71.88
68758;BME280;55747;51.998;4.466;2023-05-20T06:29:37;56351.75;;;-144.48;71.57
68758;BME280;55747;51.998;4.466;2023-05-20T06:32:02;56318.66;;;-144.48;69.05
68758;BME280;55747;51.998;4.466;2023-05-20T06:34:27;56349.66;;;-144.48;68.64
68758;BME280;55747;51.998;4.466;2023-05-20T06:36:52;56347.59;;;-144.48;68.70
68758;BME280;55747;51.998;4.466;2023-05-20T06:39:18;56333.13;;;-144.48;68.58
68758;BME280;55747;51.998;4.466;2023-05-20T06:41:43;56341.41;;;-144.48;67.10
68758;BME280;55747;51.998;4.466;2023-05-20T06:44:08;56306.25;;;-144.48;67.71
68758;BME280;55747;51.998;4.466;2023-05-20T06:46:33;56335.19;;;-144.48;69.87
68758;BME280;55747;51.998;4.466;2023-05-20T06:48:59;56322.78;;;-144.48;68.78
68758;BME280;55747;51.998;4.466;2023-05-20T06:51:24;56353.81;;;-144.48;65.87
68758;BME280;55747;51.998;4.466;2023-05-20T06:53:50;56316.59;;;-144.48;65.62
68758;BME280;55747;51.998;4.466;2023-05-20T06:56:16;56341.41;;;-144.48;65.12
68758;BME280;55747;51.998;4.466;2023-05-20T06:58:41;56314.53;;;-144.48;66.37
68758;BME280;55747;51.998;4.466;2023-05-20T07:01:06;56324.88;;;-144.48;66.77
68758;BME280;55747;51.998;4.466;2023-05-20T07:03:31;56343.47;;;-144.48;65.28
68758;BME280;55747;51.998;4.466;2023-05-20T07:05:57;56372.41;;;-144.48;65.47
68758;BME280;55747;51.998;4.466;2023-05-20T07:08:22;56322.78;;;-144.48;63.21
68758;BME280;55747;51.998;4.466;2023-05-20T07:10:47;56351.75;;;-144.48;61.46
68758;BME280;55747;51.998;4.466;2023-05-20T07:13:13;56333.13;;;-144.48;59.61
68758;BME280;55747;51.998;4.466;2023-05-20T07:15:38;56322.78;;;-144.48;61.32
68758;BME280;55747;51.998;4.466;2023-05-20T07:18:03;56326.94;;;-144.48;58.90
68758;BME280;55747;51.998;4.466;2023-05-20T07:20:28;56260.78;;;-144.48;56.88
68758;BME280;55747;51.998;4.466;2023-05-20T07:22:54;56285.59;;;-144.48;55.74
68758;BME280;55747;51.998;4.466;2023-05-20T07:25:19;56308.31;;;-144.48;57.26
68758;BME280;55747;51.998;4.466;2023-05-20T07:27:44;56304.19;;;-144.48;57.56
68758;BME280;55747;51.998;4.466;2023-05-20T07:30:10;56331.06;;;-144.48;56.80
68758;BME280;55747;51.998;4.466;2023-05-20T07:32:35;56283.50;;;-144.48;53.76
68758;BME280;55747;51.998;4.466;2023-05-20T07:35:00;56293.84;;;-144.48;52.67
68758;BME280;55747;51.998;4.466;2023-05-20T07:37:25;56304.19;;;-144.48;53.04
68758;BME280;55747;51.998;4.466;2023-05-20T07:39:51;56300.06;;;-144.48;52.50
68758;BME280;55747;51.998;4.466;2023-05-20T07:42:16;56289.72;;;-144.48;53.77
68758;BME280;55747;51.998;4.466;2023-05-20T07:44:41;56277.31;;;-144.48;53.15
68758;BME280;55747;51.998;4.466;2023-05-20T07:47:07;56285.59;;;-144.48;52.78
68758;BME280;55747;51.998;4.466;2023-05-20T07:49:32;56316.59;;;-144.48;51.37
68758;BME280;55747;51.998;4.466;2023-05-20T07:51:58;56302.13;;;-144.48;50.33
68758;BME280;55747;51.998;4.466;2023-05-20T07:54:23;56316.59;;;-144.48;49.64
68758;BME280;55747;51.998;4.466;2023-05-20T07:56:48;56293.84;;;-144.48;50.44
68758;BME280;55747;51.998;4.466;2023-05-20T07:59:13;56258.72;;;-144.48;50.22
68758;BME280;55747;51.998;4.466;2023-05-20T08:01:39;56322.78;;;-144.48;50.23
68758;BME280;55747;51.998;4.466;2023-05-20T08:04:08;56329.00;;;-144.48;49.59
68758;BME280;55747;51.998;4.466;2023-05-20T08:06:33;56281.44;;;-144.48;48.32
68758;BME280;55747;51.998;4.466;2023-05-20T08:08:59;56285.59;;;-144.48;46.99
68758;BME280;55747;51.998;4.466;2023-05-20T08:11:25;56269.03;;;-144.48;47.65
68758;BME280;55747;51.998;4.466;2023-05-20T08:13:50;56312.47;;;-144.48;47.35
68758;BME280;55747;51.998;4.466;2023-05-20T08:16:15;56295.91;;;-144.48;47.62
68758;BME280;55747;51.998;4.466;2023-05-20T08:18:40;56271.13;;;-144.48;46.27
68758;BME280;55747;51.998;4.466;2023-05-20T08:21:06;56271.13;;;-144.48;47.20
68758;BME280;55747;51.998;4.466;2023-05-20T08:23:34;56283.50;;;-144.48;46.04
68758;BME280;55747;51.998;4.466;2023-05-20T08:26:00;56277.31;;;-144.48;46.36
68758;BME280;55747;51.998;4.466;2023-05-20T08:28:26;56277.31;;;-144.48;45.23
68758;BME280;55747;51.998;4.466;2023-05-20T08:30:52;56238.03;;;-144.48;45.29
68758;BME280;55747;51.998;4.466;2023-05-20T08:33:27;56269.03;;;-144.48;46.24
68758;BME280;55747;51.998;4.466;2023-05-20T08:35:52;56308.31;;;-144.48;44.63
68758;BME280;55747;51.998;4.466;2023-05-20T08:38:17;56283.50;;;-144.48;44.44
68758;BME280;55747;51.998;4.466;2023-05-20T08:40:42;56262.84;;;-144.48;43.56
68758;BME280;55747;51.998;4.466;2023-05-20T08:43:08;56287.66;;;-144.48;43.63
68758;BME280;55747;51.998;4.466;2023-05-20T08:45:33;56248.38;;;-144.48;43.00
68758;BME280;55747;51.998;4.466;2023-05-20T08:48:01;56260.78;;;-144.48;43.76
68758;BME280;55747;51.998;4.466;2023-05-20T08:50:28;56273.19;;;-144.48;42.78
68758;BME280;55747;51.998;4.466;2023-05-20T08:52:53;56269.03;;;-144.48;41.25
68758;BME280;55747;51.998;4.466;2023-05-20T08:55:29;56275.25;;;-144.48;41.31
68758;BME280;55747;51.998;4.466;2023-05-20T08:57:57;56258.72;;;-144.48;42.08
68758;BME280;55747;51.998;4.466;2023-05-20T09:00:22;56275.25;;;-144.48;42.12
68758;BME280;55747;51.998;4.466;2023-05-20T09:02:52;56258.72;;;-144.48;41.40
68758;BME280;55747;51.998;4.466;2023-05-20T09:05:18;56271.13;;;-144.48;40.35
68758;BME280;55747;51.998;4.466;2023-05-20T09:07:45;56246.31;;;-144.48;40.06
68758;BME280;55747;51.998;4.466;2023-05-20T09:10:10;56266.97;;;-144.48;40.99
68758;BME280;55747;51.998;4.466;2023-05-20T09:12:35;56254.56;;;-144.48;41.37
68758;BME280;55747;51.998;4.466;2023-05-20T09:15:01;56262.84;;;-144.48;41.14
68758;BME280;55747;51.998;4.466;2023-05-20T09:17:26;56264.91;;;-144.48;41.00
68758;BME280;55747;51.998;4.466;2023-05-20T09:19:52;56266.97;;;-144.48;40.10
68758;BME280;55747;51.998;4.466;2023-05-20T09:22:21;56271.13;;;-144.48;39.87
68758;BME280;55747;51.998;4.466;2023-05-20T09:24:47;56248.38;;;-144.48;40.80
68758;BME280;55747;51.998;4.466;2023-05-20T09:27:12;56273.19;;;-144.48;40.31
68758;BME280;55747;51.998;4.466;2023-05-20T09:29:37;56244.25;;;-144.48;40.57
68758;BME280;55747;51.998;4.466;2023-05-20T09:32:02;56256.63;;;-144.48;40.05
68758;BME280;55747;51.998;4.466;2023-05-20T09:34:28;56240.09;;;-144.48;39.69
68758;BME280;55747;51.998;4.466;2023-05-20T09:36:53;56248.38;;;-144.48;38.78
68758;BME280;55747;51.998;4.466;2023-05-20T09:39:24;56254.56;;;-144.48;38.23
68758;BME280;55747;51.998;4.466;2023-05-20T09:42:11;56244.25;;;-144.48;36.78
68758;BME280;55747;51.998;4.466;2023-05-20T09:44:40;56264.91;;;-144.48;38.45
68758;BME280;55747;51.998;4.466;2023-05-20T09:47:06;56254.56;;;-144.48;38.60
68758;BME280;55747;51.998;4.466;2023-05-20T09:49:32;56250.44;;;-144.48;38.69
68758;BME280;55747;51.998;4.466;2023-05-20T09:51:59;56254.56;;;-144.48;37.19
68758;BME280;55747;51.998;4.466;2023-05-20T09:54:25;56233.91;;;-144.48;37.37
68758;BME280;55747;51.998;4.466;2023-05-20T09:56:50;56250.44;;;-144.48;39.63
68758;BME280;55747;51.998;4.466;2023-05-20T09:59:17;56256.63;;;-144.48;41.07
68758;BME280;55747;51.998;4.466;2023-05-20T10:01:45;56269.03;;;-144.48;39.28
68758;BME280;55747;51.998;4.466;2023-05-20T10:04:10;56244.25;;;-144.48;39.83
68758;BME280;55747;51.998;4.466;2023-05-20T10:06:44;56254.56;;;-144.48;37.91
68758;BME280;55747;51.998;4.466;2023-05-20T10:12:06;56302.13;;;-144.48;39.11
68758;BME280;55747;51.998;4.466;2023-05-20T10:19:45;56227.69;;;-144.48;36.48
68758;BME280;55747;51.998;4.466;2023-05-20T10:22:10;56254.56;;;-144.48;36.25
68758;BME280;55747;51.998;4.466;2023-05-20T10:27:03;56275.25;;;-144.48;39.38
68758;BME280;55747;51.998;4.466;2023-05-20T10:29:29;56275.25;;;-144.48;39.06
68758;BME280;55747;51.998;4.466;2023-05-20T10:31:54;56260.78;;;-144.48;37.95
68758;BME280;55747;51.998;4.466;2023-05-20T10:34:20;56277.31;;;-144.48;37.84
68758;BME280;55747;51.998;4.466;2023-05-20T10:36:46;56252.50;;;-144.48;37.56
68758;BME280;55747;51.998;4.466;2023-05-20T10:39:15;56207.03;;;-144.48;36.96
68758;BME280;55747;51.998;4.466;2023-05-20T10:41:41;56269.03;;;-144.48;37.30
68758;BME280;55747;51.998;4.466;2023-05-20T10:44:06;56248.38;;;-144.48;37.74
68758;BME280;55747;51.998;4.466;2023-05-20T10:46:32;56238.03;;;-144.48;38.66
68758;BME280;55747;51.998;4.466;2023-05-20T10:48:58;56273.19;;;-144.48;41.00
68758;BME280;55747;51.998;4.466;2023-05-20T10:51:23;56248.38;;;-144.48;38.54
68758;BME280;55747;51.998;4.466;2023-05-20T10:53:51;56227.69;;;-144.48;38.09
68758;BME280;55747;51.998;4.466;2023-05-20T10:56:17;56231.84;;;-144.48;39.14
68758;BME280;55747;51.998;4.466;2023-05-20T10:58:42;56254.56;;;-144.48;39.16
68758;BME280;55747;51.998;4.466;2023-05-20T11:01:08;56285.59;;;-144.48;38.59
68758;BME280;55747;51.998;4.466;2023-05-20T11:03:34;56260.78;;;-144.48;41.29
68758;BME280;55747;51.998;4.466;2023-05-20T11:06:00;56246.31;;;-144.48;41.19
68758;BME280;55747;51.998;4.466;2023-05-20T11:08:28;56258.72;;;-144.48;41.82
68758;BME280;55747;51.998;4.466;2023-05-20T11:10:55;56273.19;;;-144.48;43.52
68758;BME280;55747;51.998;4.466;2023-05-20T11:13:21;56264.91;;;-144.48;41.89
68758;BME280;55747;51.998;4.466;2023-05-20T11:15:47;56229.75;;;-144.48;40.56
68758;BME280;55747;51.998;4.466;2023-05-20T11:18:12;56271.13;;;-144.48;39.94
68758;BME280;55747;51.998;4.466;2023-05-20T11:20:39;56246.31;;;-144.48;39.14
68758;BME280;55747;51.998;4.466;2023-05-20T11:23:04;56235.97;;;-144.48;37.99
68758;BME280;55747;51.998;4.466;2023-05-20T11:25:30;56235.97;;;-144.48;36.24
68758;BME280;55747;51.998;4.466;2023-05-20T11:27:57;56233.91;;;-144.48;36.17
68758;BME280;55747;51.998;4.466;2023-05-20T11:30:23;56223.56;;;-144.48;35.39
68758;BME280;55747;51.998;4.466;2023-05-20T11:32:55;56219.44;;;-144.48;35.13
68758;BME280;55747;51.998;4.466;2023-05-20T11:35:21;56227.69;;;-144.48;36.03
68758;BME280;55747;51.998;4.466;2023-05-20T11:37:52;56217.38;;;-144.48;36.01
68758;BME280;55747;51.998;4.466;2023-05-20T11:40:18;56207.03;;;-144.48;35.91
68758;BME280;55747;51.998;4.466;2023-05-20T11:42:54;56204.97;;;-144.48;36.90
68758;BME280;55747;51.998;4.466;2023-05-20T11:45:20;56244.25;;;-144.48;36.50
68758;BME280;55747;51.998;4.466;2023-05-20T11:47:45;56240.09;;;-144.48;35.61
68758;BME280;55747;51.998;4.466;2023-05-20T11:50:11;56231.84;;;-144.48;35.48
68758;BME280;55747;51.998;4.466;2023-05-20T11:52:40;56219.44;;;-144.48;35.62
68758;BME280;55747;51.998;4.466;2023-05-20T11:55:09;56221.50;;;-144.48;33.91
68758;BME280;55747;51.998;4.466;2023-05-20T11:57:35;56233.91;;;-144.48;34.75
68758;BME280;55747;51.998;4.466;2023-05-20T12:00:01;56221.50;;;-144.48;35.74
68758;BME280;55747;51.998;4.466;2023-05-20T12:02:27;56194.63;;;-144.48;36.04
68758;BME280;55747;51.998;4.466;2023-05-20T12:04:52;56211.16;;;-144.48;36.56
68758;BME280;55747;51.998;4.466;2023-05-20T12:07:17;56217.38;;;-144.48;34.07
68758;BME280;55747;51.998;4.466;2023-05-20T12:09:42;56190.47;;;-144.48;33.59
68758;BME280;55747;51.998;4.466;2023-05-20T12:12:07;56242.16;;;-144.48;35.21
68758;BME280;55747;51.998;4.466;2023-05-20T12:14:35;56211.16;;;-144.48;35.34
68758;BME280;55747;51.998;4.466;2023-05-20T12:17:00;56227.69;;;-144.48;36.10
68758;BME280;55747;51.998;4.466;2023-05-20T12:19:25;56235.97;;;-144.48;34.38
68758;BME280;55747;51.998;4.466;2023-05-20T12:21:50;56252.50;;;-144.48;36.01
68758;BME280;55747;51.998;4.466;2023-05-20T12:24:16;56211.16;;;-144.48;36.27
68758;BME280;55747;51.998;4.466;2023-05-20T12:26:41;56213.22;;;-144.48;35.67
68758;BME280;55747;51.998;4.466;2023-05-20T12:29:07;56248.38;;;-144.48;36.36
68758;BME280;55747;51.998;4.466;2023-05-20T12:31:32;56211.16;;;-144.48;37.61
68758;BME280;55747;51.998;4.466;2023-05-20T12:33:57;56217.38;;;-144.48;37.48
68758;BME280;55747;51.998;4.466;2023-05-20T12:36:22;56260.78;;;-144.48;38.97
68758;BME280;55747;51.998;4.466;2023-05-20T12:38:47;56227.69;;;-144.48;37.89
68758;BME280;55747;51.998;4.466;2023-05-20T12:41:13;56273.19;;;-144.48;36.83